PWSweather.com
Personal Weather Stations
Station Observations
AF1HS
North Haven, CT 06473

North Haven, CT 06473

Lat: 41.3733, Lon: -72.8413

Elevation: 85.3

Station Type: Oregon Scientific WMR968

http://www.af1hs.com/wx/index.php

High Low Average
Temperature 41.2°F5.1°C 33.3°F0.7°C 37.4°F3.0°C
Dew Point 40.3°F4.6°C 24.9°F-3.9°C 34.8°F1.6°C
Winds 6.5 mph 10.5 kmh Calm Calm 2.0 mph SW3.2 kmh SW
Wind Gusts 8.7 mph14.0 kmh -- 3.0 mph4.8 kmh
Humidity 100% 70% 91%
Pressure 30.18 in1022.0 mb 30.03 in1016.9 mb -
Precipitation 0.00 in0.0 mm - -
Hour Temp Dew Point Humidity Winds Wind Gusts Pressure Precip Precip Rate Daily Precip Total
12:00 AM 33.6°F0.9°C 24.9°F-3.9°C 70% Calm Calm -- 30.12 in1020.0 mb - 0.00 in0.0 mm 0.00 in0.0 mm
12:10 AM 33.3°F0.7°C 24.9°F-3.9°C 71% Calm Calm -- 30.12 in1020.0 mb - 0.00 in0.0 mm 0.00 in0.0 mm
12:20 AM 33.3°F0.7°C 24.9°F-3.9°C 71% Calm Calm -- 30.12 in1020.0 mb - 0.00 in0.0 mm 0.00 in0.0 mm
12:30 AM 33.5°F0.8°C 25.4°F-3.7°C 72% Calm Calm -- 30.12 in1020.0 mb - 0.00 in0.0 mm 0.00 in0.0 mm
12:40 AM 33.6°F0.9°C 25.6°F-3.6°C 72% Calm Calm -- 30.12 in1020.0 mb - 0.00 in0.0 mm 0.00 in0.0 mm
12:50 AM 33.4°F0.8°C 25.3°F-3.7°C 72% Calm Calm -- 30.12 in1020.0 mb - 0.00 in0.0 mm 0.00 in0.0 mm
01:00 AM 33.3°F0.7°C 25.5°F-3.6°C 73% Calm Calm -- 30.12 in1020.0 mb - 0.00 in0.0 mm 0.00 in0.0 mm
01:10 AM 33.4°F0.8°C 25.7°F-3.5°C 73% Calm Calm -- 30.12 in1020.0 mb - 0.00 in0.0 mm 0.00 in0.0 mm
01:20 AM 33.8°F1.0°C 26.4°F-3.1°C 74% Calm Calm -- 30.09 in1019.0 mb - 0.00 in0.0 mm 0.00 in0.0 mm
01:30 AM 33.9°F1.1°C 26.5°F-3.1°C 74% Calm Calm -- 30.09 in1019.0 mb - 0.00 in0.0 mm 0.00 in0.0 mm
01:40 AM 33.8°F1.0°C 26.4°F-3.1°C 74% Calm Calm -- 30.09 in1019.0 mb - 0.00 in0.0 mm 0.00 in0.0 mm
01:50 AM 33.8°F1.0°C 26.7°F-2.9°C 75% Calm Calm -- 30.09 in1019.0 mb - 0.00 in0.0 mm 0.00 in0.0 mm
02:00 AM 34.0°F1.1°C 26.9°F-2.8°C 75% Calm Calm -- 30.09 in1019.0 mb - 0.00 in0.0 mm 0.00 in0.0 mm
02:10 AM 34.1°F1.2°C 27.3°F-2.6°C 76% Calm Calm -- 30.09 in1019.0 mb - 0.00 in0.0 mm 0.00 in0.0 mm
02:20 AM 34.2°F1.2°C 27.4°F-2.6°C 76% Calm Calm -- 30.09 in1019.0 mb - 0.00 in0.0 mm 0.00 in0.0 mm
02:30 AM 34.2°F1.2°C 27.5°F-2.5°C 76% Calm Calm -- 30.09 in1019.0 mb - 0.00 in0.0 mm 0.00 in0.0 mm
02:40 AM 34.3°F1.3°C 27.9°F-2.3°C 77% Calm Calm -- 30.09 in1019.0 mb - 0.00 in0.0 mm 0.00 in0.0 mm
02:50 AM 34.2°F1.2°C 27.7°F-2.4°C 77% Calm Calm -- 30.09 in1019.0 mb - 0.00 in0.0 mm 0.00 in0.0 mm
03:00 AM 34.2°F1.2°C 27.7°F-2.4°C 77% Calm Calm -- 30.09 in1019.0 mb - 0.00 in0.0 mm 0.00 in0.0 mm
03:10 AM 34.3°F1.3°C 28.2°F-2.1°C 78% Calm Calm -- 30.09 in1019.0 mb - 0.00 in0.0 mm 0.00 in0.0 mm
03:20 AM 34.2°F1.2°C 28.0°F-2.2°C 78% Calm Calm -- 30.09 in1019.0 mb - 0.00 in0.0 mm 0.00 in0.0 mm
03:30 AM 34.2°F1.2°C 28.3°F-2.1°C 79% Calm Calm -- 30.09 in1019.0 mb - 0.00 in0.0 mm 0.00 in0.0 mm
03:50 AM 34.0°F1.1°C 28.5°F-1.9°C 80% Calm Calm -- 30.09 in1019.0 mb - 0.00 in0.0 mm 0.00 in0.0 mm
04:00 AM 34.2°F1.2°C 28.9°F-1.7°C 81% Calm Calm -- 30.09 in1019.0 mb - 0.00 in0.0 mm 0.00 in0.0 mm
04:10 AM 34.3°F1.3°C 29.4°F-1.4°C 82% 0.9 mph WSW1.4 kmh WSW 3.1 mph5.0 kmh 30.09 in1019.0 mb - 0.00 in0.0 mm 0.00 in0.0 mm
04:20 AM 34.3°F1.3°C 29.4°F-1.4°C 82% Calm Calm -- 30.09 in1019.0 mb - 0.00 in0.0 mm 0.00 in0.0 mm
04:30 AM 34.5°F1.4°C 29.9°F-1.2°C 83% Calm Calm -- 30.09 in1019.0 mb - 0.00 in0.0 mm 0.00 in0.0 mm
04:40 AM 34.5°F1.4°C 30.2°F-1.0°C 84% Calm Calm -- 30.09 in1019.0 mb - 0.00 in0.0 mm 0.00 in0.0 mm
04:50 AM 34.3°F1.3°C 30.0°F-1.1°C 84% Calm Calm -- 30.09 in1019.0 mb - 0.00 in0.0 mm 0.00 in0.0 mm
05:00 AM 34.5°F1.4°C 30.4°F-0.9°C 85% Calm Calm -- 30.09 in1019.0 mb - 0.00 in0.0 mm 0.00 in0.0 mm
05:10 AM 34.5°F1.4°C 30.8°F-0.7°C 86% Calm Calm -- 30.09 in1019.0 mb - 0.00 in0.0 mm 0.00 in0.0 mm
05:20 AM 34.7°F1.5°C 31.5°F-0.3°C 88% Calm Calm -- 30.09 in1019.0 mb - 0.00 in0.0 mm 0.00 in0.0 mm
05:30 AM 34.5°F1.4°C 31.3°F-0.4°C 88% Calm Calm -- 30.09 in1019.0 mb - 0.00 in0.0 mm 0.00 in0.0 mm
05:40 AM 34.4°F1.3°C 31.7°F-0.2°C 90% Calm Calm -- 30.12 in1020.0 mb - 0.00 in0.0 mm 0.00 in0.0 mm
05:50 AM 34.3°F1.3°C 32.0°F0.0°C 91% Calm Calm -- 30.11 in1019.6 mb - 0.00 in0.0 mm 0.00 in0.0 mm
06:00 AM 34.3°F1.3°C 32.3°F0.2°C 92% Calm Calm -- 30.09 in1019.0 mb - 0.00 in0.0 mm 0.00 in0.0 mm
06:10 AM 34.5°F1.4°C 32.7°F0.4°C 93% Calm Calm -- 30.09 in1019.0 mb - 0.00 in0.0 mm 0.00 in0.0 mm
06:20 AM 34.7°F1.5°C 32.9°F0.5°C 93% Calm Calm -- 30.09 in1019.0 mb - 0.00 in0.0 mm 0.00 in0.0 mm
06:30 AM 34.7°F1.5°C 32.9°F0.5°C 93% Calm Calm -- 30.09 in1019.0 mb - 0.00 in0.0 mm 0.00 in0.0 mm
06:40 AM 34.9°F1.6°C 33.3°F0.7°C 94% 2.4 mph WSW3.9 kmh WSW 3.6 mph5.8 kmh 30.09 in1019.0 mb - 0.00 in0.0 mm 0.00 in0.0 mm
06:50 AM 34.9°F1.6°C 33.9°F1.1°C 96% Calm Calm -- 30.11 in1019.6 mb - 0.00 in0.0 mm 0.00 in0.0 mm
07:00 AM 35.1°F1.7°C 34.0°F1.1°C 96% 1.1 mph WNW1.8 kmh WNW 4.0 mph6.4 kmh 30.12 in1020.0 mb - 0.00 in0.0 mm 0.00 in0.0 mm
07:10 AM 35.1°F1.7°C 34.3°F1.3°C 97% 1.2 mph NW1.9 kmh NW 2.7 mph4.3 kmh 30.12 in1020.0 mb - 0.00 in0.0 mm 0.00 in0.0 mm
07:20 AM 35.1°F1.7°C 35.1°F1.7°C 100% Calm Calm -- 30.12 in1020.0 mb - 0.00 in0.0 mm 0.00 in0.0 mm
07:30 AM 35.1°F1.7°C 35.1°F1.7°C 100% Calm Calm -- 30.12 in1020.0 mb - 0.00 in0.0 mm 0.00 in0.0 mm
07:40 AM 35.2°F1.8°C 35.2°F1.8°C 100% 0.5 mph NNW0.8 kmh NNW 2.7 mph4.3 kmh 30.12 in1020.0 mb - 0.00 in0.0 mm 0.00 in0.0 mm
07:50 AM 35.4°F1.9°C 35.4°F1.9°C 100% 2.4 mph NW3.9 kmh NW 4.0 mph6.4 kmh 30.12 in1020.0 mb - 0.00 in0.0 mm 0.00 in0.0 mm
08:00 AM 35.6°F2.0°C 35.6°F2.0°C 100% Calm Calm -- 30.12 in1020.0 mb - 0.00 in0.0 mm 0.00 in0.0 mm
08:10 AM 35.8°F2.1°C 35.8°F2.1°C 100% Calm Calm -- 30.12 in1020.0 mb - 0.00 in0.0 mm 0.00 in0.0 mm
08:20 AM 35.8°F2.1°C 35.8°F2.1°C 100% 3.8 mph NNW6.1 kmh NNW 6.3 mph10.1 kmh 30.12 in1020.0 mb - 0.00 in0.0 mm 0.00 in0.0 mm
08:30 AM 35.8°F2.1°C 35.8°F2.1°C 100% 3.8 mph NNW6.1 kmh NNW 4.5 mph7.2 kmh 30.15 in1021.0 mb - 0.00 in0.0 mm 0.00 in0.0 mm
08:40 AM 35.8°F2.1°C 35.8°F2.1°C 100% 0.4 mph N0.6 kmh N 2.7 mph4.3 kmh 30.15 in1021.0 mb - 0.00 in0.0 mm 0.00 in0.0 mm
08:50 AM 35.9°F2.2°C 35.9°F2.2°C 100% Calm Calm 4.0 mph6.4 kmh 30.15 in1021.0 mb - 0.00 in0.0 mm 0.00 in0.0 mm
09:00 AM 36.0°F2.2°C 36.0°F2.2°C 100% 0.4 mph NNW0.6 kmh NNW 3.1 mph5.0 kmh 30.15 in1021.0 mb - 0.00 in0.0 mm 0.00 in0.0 mm
09:10 AM 36.0°F2.2°C 36.0°F2.2°C 100% 2.9 mph N4.7 kmh N 4.0 mph6.4 kmh 30.15 in1021.0 mb - 0.00 in0.0 mm 0.00 in0.0 mm
09:20 AM 36.0°F2.2°C 36.0°F2.2°C 100% 3.6 mph NNW5.8 kmh NNW 5.4 mph8.7 kmh 30.15 in1021.0 mb - 0.00 in0.0 mm 0.00 in0.0 mm
09:30 AM 36.1°F2.3°C 36.1°F2.3°C 100% 3.6 mph N5.8 kmh N 6.3 mph10.1 kmh 30.15 in1021.0 mb - 0.00 in0.0 mm 0.00 in0.0 mm
09:40 AM 36.1°F2.3°C 36.1°F2.3°C 100% 4.5 mph N7.2 kmh N 5.8 mph9.3 kmh 30.18 in1022.0 mb - 0.00 in0.0 mm 0.00 in0.0 mm
09:50 AM 36.5°F2.5°C 36.5°F2.5°C 100% 2.5 mph N4.0 kmh N 5.8 mph9.3 kmh 30.16 in1021.3 mb - 0.00 in0.0 mm 0.00 in0.0 mm
10:00 AM 37.0°F2.8°C 37.0°F2.8°C 100% 2.1 mph N3.4 kmh N 5.4 mph8.7 kmh 30.15 in1021.0 mb - 0.00 in0.0 mm 0.00 in0.0 mm
10:10 AM 37.9°F3.3°C 37.9°F3.3°C 100% 3.4 mph NNW5.5 kmh NNW 5.4 mph8.7 kmh 30.15 in1021.0 mb - 0.00 in0.0 mm 0.00 in0.0 mm
10:20 AM 38.7°F3.7°C 38.7°F3.7°C 100% 5.0 mph NNW8.0 kmh NNW 6.3 mph10.1 kmh 30.15 in1021.0 mb - 0.00 in0.0 mm 0.00 in0.0 mm
10:30 AM 39.5°F4.2°C 39.5°F4.2°C 100% 2.7 mph NNW4.3 kmh NNW 3.1 mph5.0 kmh 30.15 in1021.0 mb - 0.00 in0.0 mm 0.00 in0.0 mm
10:40 AM 39.9°F4.4°C 39.9°F4.4°C 100% 1.7 mph NNW2.7 kmh NNW 3.6 mph5.8 kmh 30.15 in1021.0 mb - 0.00 in0.0 mm 0.00 in0.0 mm
10:50 AM 40.2°F4.6°C 40.2°F4.6°C 100% 1.9 mph WNW3.1 kmh WNW 4.9 mph7.9 kmh 30.15 in1021.0 mb - 0.00 in0.0 mm 0.00 in0.0 mm
11:00 AM 40.3°F4.6°C 40.3°F4.6°C 100% 3.1 mph NW5.0 kmh NW 5.4 mph8.7 kmh 30.15 in1021.0 mb - 0.00 in0.0 mm 0.00 in0.0 mm
11:10 AM 40.1°F4.5°C 40.1°F4.5°C 100% 3.5 mph NW5.6 kmh NW 6.3 mph10.1 kmh 30.15 in1021.0 mb - 0.00 in0.0 mm 0.00 in0.0 mm
11:20 AM 39.9°F4.4°C 39.9°F4.4°C 100% 5.6 mph NW9.0 kmh NW 6.7 mph10.8 kmh 30.15 in1021.0 mb - 0.00 in0.0 mm 0.00 in0.0 mm
11:30 AM 39.7°F4.3°C 37.9°F3.3°C 93% 4.2 mph NNW6.8 kmh NNW 8.0 mph12.9 kmh 30.15 in1021.0 mb - 0.00 in0.0 mm 0.00 in0.0 mm
11:40 AM 39.6°F4.2°C 36.6°F2.6°C 89% 3.4 mph N5.5 kmh N 4.5 mph7.2 kmh 30.15 in1021.0 mb - 0.00 in0.0 mm 0.00 in0.0 mm
11:50 AM 39.7°F4.3°C 37.3°F2.9°C 91% 4.8 mph NNW7.7 kmh NNW 5.8 mph9.3 kmh 30.13 in1020.3 mb - 0.00 in0.0 mm 0.00 in0.0 mm
12:00 PM 39.4°F4.1°C 36.2°F2.3°C 88% 4.0 mph NNW6.4 kmh NNW 5.4 mph8.7 kmh 30.12 in1020.0 mb - 0.00 in0.0 mm 0.00 in0.0 mm
12:10 PM 39.2°F4.0°C 36.0°F2.2°C 88% 5.2 mph NW8.4 kmh NW 6.3 mph10.1 kmh 30.12 in1020.0 mb - 0.00 in0.0 mm 0.00 in0.0 mm
12:20 PM 39.7°F4.3°C 37.0°F2.8°C 90% 2.9 mph N4.7 kmh N 4.0 mph6.4 kmh 30.12 in1020.0 mb - 0.00 in0.0 mm 0.00 in0.0 mm
12:30 PM 40.1°F4.5°C 36.5°F2.5°C 87% 4.5 mph NNW7.2 kmh NNW 6.3 mph10.1 kmh 30.12 in1020.0 mb - 0.00 in0.0 mm 0.00 in0.0 mm
12:40 PM 39.9°F4.4°C 35.2°F1.8°C 83% 5.5 mph N8.9 kmh N 8.3 mph13.4 kmh 30.12 in1020.0 mb - 0.00 in0.0 mm 0.00 in0.0 mm
12:50 PM 39.6°F4.2°C 34.8°F1.6°C 83% 4.6 mph NNW7.4 kmh NNW 7.6 mph12.2 kmh 30.12 in1020.0 mb - 0.00 in0.0 mm 0.00 in0.0 mm
01:00 PM 39.6°F4.2°C 35.4°F1.9°C 85% 4.7 mph NNW7.6 kmh NNW 7.6 mph12.2 kmh 30.12 in1020.0 mb - 0.00 in0.0 mm 0.00 in0.0 mm
01:10 PM 39.7°F4.3°C 35.6°F2.0°C 85% 5.4 mph NNW8.7 kmh NNW 8.7 mph14.0 kmh 30.12 in1020.0 mb - 0.00 in0.0 mm 0.00 in0.0 mm
01:20 PM 39.9°F4.4°C 35.4°F1.9°C 84% 6.0 mph NW9.7 kmh NW 8.0 mph12.9 kmh 30.12 in1020.0 mb - 0.00 in0.0 mm 0.00 in0.0 mm
01:30 PM 39.9°F4.4°C 34.6°F1.4°C 81% 6.5 mph N10.5 kmh N 8.7 mph14.0 kmh 30.12 in1020.0 mb - 0.00 in0.0 mm 0.00 in0.0 mm
01:40 PM 40.1°F4.5°C 35.1°F1.7°C 82% 4.8 mph N7.7 kmh N 6.3 mph10.1 kmh 30.09 in1019.0 mb - 0.00 in0.0 mm 0.00 in0.0 mm
01:50 PM 40.6°F4.8°C 35.6°F2.0°C 82% 5.5 mph N8.9 kmh N 7.6 mph12.2 kmh 30.11 in1019.6 mb - 0.00 in0.0 mm 0.00 in0.0 mm
02:00 PM 40.8°F4.9°C 35.1°F1.7°C 80% 4.3 mph NNE6.9 kmh NNE 8.0 mph12.9 kmh 30.12 in1020.0 mb - 0.00 in0.0 mm 0.00 in0.0 mm
02:10 PM 40.8°F4.9°C 35.1°F1.7°C 80% 1.3 mph NNW2.1 kmh NNW 2.7 mph4.3 kmh 30.12 in1020.0 mb - 0.00 in0.0 mm 0.00 in0.0 mm
02:20 PM 41.0°F5.0°C 35.3°F1.8°C 80% 4.2 mph N6.8 kmh N 6.3 mph10.1 kmh 30.10 in1019.3 mb - 0.00 in0.0 mm 0.00 in0.0 mm
02:30 PM 41.0°F5.0°C 35.3°F1.8°C 80% 3.2 mph N5.1 kmh N 3.6 mph5.8 kmh 30.09 in1019.0 mb - 0.00 in0.0 mm 0.00 in0.0 mm
02:40 PM 41.2°F5.1°C 35.8°F2.1°C 81% 3.4 mph N5.5 kmh N 5.8 mph9.3 kmh 30.12 in1020.0 mb - 0.00 in0.0 mm 0.00 in0.0 mm
02:50 PM 41.2°F5.1°C 35.8°F2.1°C 81% 3.5 mph N5.6 kmh N 6.3 mph10.1 kmh 30.12 in1020.0 mb - 0.00 in0.0 mm 0.00 in0.0 mm
03:00 PM 40.8°F4.9°C 35.4°F1.9°C 81% 2.2 mph N3.5 kmh N 4.0 mph6.4 kmh 30.12 in1020.0 mb - 0.00 in0.0 mm 0.00 in0.0 mm
03:10 PM 40.5°F4.7°C 35.1°F1.7°C 81% 2.9 mph NNW4.7 kmh NNW 4.9 mph7.9 kmh 30.12 in1020.0 mb - 0.00 in0.0 mm 0.00 in0.0 mm
03:20 PM 40.3°F4.6°C 34.9°F1.6°C 81% 4.4 mph NNW7.1 kmh NNW 8.3 mph13.4 kmh 30.12 in1020.0 mb - 0.00 in0.0 mm 0.00 in0.0 mm
03:30 PM 40.1°F4.5°C 35.4°F1.9°C 83% 3.5 mph N5.6 kmh N 5.4 mph8.7 kmh 30.12 in1020.0 mb - 0.00 in0.0 mm 0.00 in0.0 mm
03:40 PM 39.9°F4.4°C 35.8°F2.1°C 85% 1.6 mph N2.6 kmh N 3.6 mph5.8 kmh 30.09 in1019.0 mb - 0.00 in0.0 mm 0.00 in0.0 mm
04:00 PM 39.8°F4.3°C 36.0°F2.2°C 86% 4.5 mph NNE7.2 kmh NNE 5.4 mph8.7 kmh 30.09 in1019.0 mb - 0.00 in0.0 mm 0.00 in0.0 mm
04:10 PM 39.6°F4.2°C 36.0°F2.2°C 87% 2.7 mph N4.3 kmh N 3.6 mph5.8 kmh 30.09 in1019.0 mb - 0.00 in0.0 mm 0.00 in0.0 mm
04:20 PM 39.4°F4.1°C 35.8°F2.1°C 87% 2.7 mph NNW4.3 kmh NNW 3.6 mph5.8 kmh 30.11 in1019.6 mb - 0.00 in0.0 mm 0.00 in0.0 mm
04:30 PM 39.3°F4.1°C 36.0°F2.2°C 88% 2.1 mph NNW3.4 kmh NNW 4.9 mph7.9 kmh 30.12 in1020.0 mb - 0.00 in0.0 mm 0.00 in0.0 mm
04:40 PM 39.2°F4.0°C 35.9°F2.2°C 88% Calm Calm -- 30.12 in1020.0 mb - 0.00 in0.0 mm 0.00 in0.0 mm
04:50 PM 39.2°F4.0°C 35.9°F2.2°C 88% Calm Calm -- 30.12 in1020.0 mb - 0.00 in0.0 mm 0.00 in0.0 mm
05:00 PM 39.2°F4.0°C 36.5°F2.5°C 90% 1.5 mph NW2.4 kmh NW 4.0 mph6.4 kmh 30.12 in1020.0 mb - 0.00 in0.0 mm 0.00 in0.0 mm
05:10 PM 39.4°F4.1°C 37.8°F3.2°C 94% 0.9 mph NE1.4 kmh NE 2.7 mph4.3 kmh 30.12 in1020.0 mb - 0.00 in0.0 mm 0.00 in0.0 mm
05:20 PM 39.6°F4.2°C 38.2°F3.4°C 95% 1.6 mph NE2.6 kmh NE 3.6 mph5.8 kmh 30.12 in1020.0 mb - 0.00 in0.0 mm 0.00 in0.0 mm
05:30 PM 39.5°F4.2°C 37.9°F3.3°C 94% 2.1 mph ENE3.4 kmh ENE 5.8 mph9.3 kmh 30.12 in1020.0 mb - 0.00 in0.0 mm 0.00 in0.0 mm
05:40 PM 39.6°F4.2°C 39.6°F4.2°C 100% 2.7 mph E4.3 kmh E 3.1 mph5.0 kmh 30.12 in1020.0 mb - 0.00 in0.0 mm 0.00 in0.0 mm
05:50 PM 39.6°F4.2°C 39.6°F4.2°C 100% 1.5 mph NE2.4 kmh NE 3.1 mph5.0 kmh 30.12 in1020.0 mb - 0.00 in0.0 mm 0.00 in0.0 mm
06:00 PM 39.6°F4.2°C 39.6°F4.2°C 100% 2.0 mph ENE3.2 kmh ENE 4.0 mph6.4 kmh 30.12 in1020.0 mb - 0.00 in0.0 mm 0.00 in0.0 mm
06:10 PM 39.7°F4.3°C 39.7°F4.3°C 100% Calm Calm 3.1 mph5.0 kmh 30.12 in1020.0 mb - 0.00 in0.0 mm 0.00 in0.0 mm
06:20 PM 39.7°F4.3°C 39.7°F4.3°C 100% 1.8 mph NNE2.9 kmh NNE 4.0 mph6.4 kmh 30.12 in1020.0 mb - 0.00 in0.0 mm 0.00 in0.0 mm
06:30 PM 39.6°F4.2°C 39.6°F4.2°C 100% 2.5 mph NE4.0 kmh NE 3.1 mph5.0 kmh 30.12 in1020.0 mb - 0.00 in0.0 mm 0.00 in0.0 mm
06:40 PM 39.4°F4.1°C 39.4°F4.1°C 100% Calm Calm 5.8 mph9.3 kmh 30.12 in1020.0 mb - 0.00 in0.0 mm 0.00 in0.0 mm
06:50 PM 39.4°F4.1°C 39.4°F4.1°C 100% Calm Calm -- 30.12 in1020.0 mb - 0.00 in0.0 mm 0.00 in0.0 mm
07:00 PM 39.4°F4.1°C 39.4°F4.1°C 100% 2.1 mph NNE3.4 kmh NNE 4.9 mph7.9 kmh 30.12 in1020.0 mb - 0.00 in0.0 mm 0.00 in0.0 mm
07:10 PM 39.4°F4.1°C 39.4°F4.1°C 100% Calm Calm -- 30.12 in1020.0 mb - 0.00 in0.0 mm 0.00 in0.0 mm
07:20 PM 39.3°F4.1°C 39.3°F4.1°C 100% 1.1 mph N1.8 kmh N 2.7 mph4.3 kmh 30.12 in1020.0 mb - 0.00 in0.0 mm 0.00 in0.0 mm
07:30 PM 39.0°F3.9°C 39.0°F3.9°C 100% 1.3 mph ENE2.1 kmh ENE 4.9 mph7.9 kmh 30.12 in1020.0 mb - 0.00 in0.0 mm 0.00 in0.0 mm
07:40 PM 39.2°F4.0°C 39.2°F4.0°C 100% 3.0 mph NNE4.8 kmh NNE 4.0 mph6.4 kmh 30.12 in1020.0 mb - 0.00 in0.0 mm 0.00 in0.0 mm
07:50 PM 39.0°F3.9°C 39.0°F3.9°C 100% 2.3 mph N3.7 kmh N 5.8 mph9.3 kmh 30.12 in1020.0 mb - 0.00 in0.0 mm 0.00 in0.0 mm
08:00 PM 39.1°F3.9°C 39.1°F3.9°C 100% 3.6 mph NNE5.8 kmh NNE 5.4 mph8.7 kmh 30.12 in1020.0 mb - 0.00 in0.0 mm 0.00 in0.0 mm
08:10 PM 39.0°F3.9°C 39.0°F3.9°C 100% Calm Calm 5.4 mph8.7 kmh 30.12 in1020.0 mb - 0.00 in0.0 mm 0.00 in0.0 mm
08:20 PM 38.8°F3.8°C 38.8°F3.8°C 100% 0.8 mph NE1.3 kmh NE 3.6 mph5.8 kmh 30.10 in1019.3 mb - 0.00 in0.0 mm 0.00 in0.0 mm
08:30 PM 38.8°F3.8°C 38.8°F3.8°C 100% 0.6 mph NE1.0 kmh NE 3.1 mph5.0 kmh 30.09 in1019.0 mb - 0.00 in0.0 mm 0.00 in0.0 mm
08:40 PM 38.8°F3.8°C 38.8°F3.8°C 100% 1.7 mph NNE2.7 kmh NNE 7.2 mph11.6 kmh 30.09 in1019.0 mb - 0.00 in0.0 mm 0.00 in0.0 mm
08:50 PM 38.7°F3.7°C 38.7°F3.7°C 100% Calm Calm -- 30.09 in1019.0 mb - 0.00 in0.0 mm 0.00 in0.0 mm
09:00 PM 38.7°F3.7°C 38.7°F3.7°C 100% 2.5 mph N4.0 kmh N 3.6 mph5.8 kmh 30.09 in1019.0 mb - 0.00 in0.0 mm 0.00 in0.0 mm
09:10 PM 38.7°F3.7°C 38.7°F3.7°C 100% Calm Calm 4.9 mph7.9 kmh 30.09 in1019.0 mb - 0.00 in0.0 mm 0.00 in0.0 mm
09:20 PM 38.6°F3.7°C 38.6°F3.7°C 100% 1.1 mph NE1.8 kmh NE 4.0 mph6.4 kmh 30.09 in1019.0 mb - 0.00 in0.0 mm 0.00 in0.0 mm
09:30 PM 38.5°F3.6°C 38.5°F3.6°C 100% 2.0 mph NNE3.2 kmh NNE 4.0 mph6.4 kmh 30.09 in1019.0 mb - 0.00 in0.0 mm 0.00 in0.0 mm
09:40 PM 38.5°F3.6°C 38.5°F3.6°C 100% 0.9 mph NNE1.4 kmh NNE 2.7 mph4.3 kmh 30.09 in1019.0 mb - 0.00 in0.0 mm 0.00 in0.0 mm
09:50 PM 38.5°F3.6°C 38.5°F3.6°C 100% 4.1 mph N6.6 kmh N 5.8 mph9.3 kmh 30.08 in1018.6 mb - 0.00 in0.0 mm 0.00 in0.0 mm
10:00 PM 38.5°F3.6°C 38.5°F3.6°C 100% Calm Calm 3.1 mph5.0 kmh 30.06 in1017.9 mb - 0.00 in0.0 mm 0.00 in0.0 mm
10:10 PM 38.5°F3.6°C 38.5°F3.6°C 100% Calm Calm 3.1 mph5.0 kmh 30.06 in1017.9 mb - 0.00 in0.0 mm 0.00 in0.0 mm
10:20 PM 38.3°F3.5°C 38.3°F3.5°C 100% 1.9 mph N3.1 kmh N 3.1 mph5.0 kmh 30.06 in1017.9 mb - 0.00 in0.0 mm 0.00 in0.0 mm
10:30 PM 38.3°F3.5°C 38.3°F3.5°C 100% 2.0 mph NE3.2 kmh NE 3.6 mph5.8 kmh 30.06 in1017.9 mb - 0.00 in0.0 mm 0.00 in0.0 mm
10:40 PM 38.3°F3.5°C 38.3°F3.5°C 100% 0.6 mph N1.0 kmh N -- 30.06 in1017.9 mb - 0.00 in0.0 mm 0.00 in0.0 mm
10:50 PM 38.1°F3.4°C 38.1°F3.4°C 100% Calm Calm -- 30.04 in1017.3 mb - 0.00 in0.0 mm 0.00 in0.0 mm
11:00 PM 38.1°F3.4°C 38.1°F3.4°C 100% 2.7 mph NNW4.3 kmh NNW 3.6 mph5.8 kmh 30.03 in1016.9 mb - 0.00 in0.0 mm 0.00 in0.0 mm
11:10 PM 37.9°F3.3°C 37.9°F3.3°C 100% 0.8 mph N1.3 kmh N 2.7 mph4.3 kmh 30.03 in1016.9 mb - 0.00 in0.0 mm 0.00 in0.0 mm
11:20 PM 37.8°F3.2°C 37.8°F3.2°C 100% 2.9 mph NNW4.7 kmh NNW 4.0 mph6.4 kmh 30.03 in1016.9 mb - 0.00 in0.0 mm 0.00 in0.0 mm
11:30 PM 37.6°F3.1°C 37.6°F3.1°C 100% 3.7 mph NW6.0 kmh NW 5.4 mph8.7 kmh 30.03 in1016.9 mb - 0.00 in0.0 mm 0.00 in0.0 mm
11:40 PM 37.6°F3.1°C 37.6°F3.1°C 100% 3.1 mph NNW5.0 kmh NNW 4.0 mph6.4 kmh 30.03 in1016.9 mb - 0.00 in0.0 mm 0.00 in0.0 mm
11:50 PM 37.4°F3.0°C 37.4°F3.0°C 100% 2.2 mph N3.5 kmh N 3.6 mph5.8 kmh 30.03 in1016.9 mb - 0.00 in0.0 mm 0.00 in0.0 mm